Time;durP1;ratioP1;P1;durP2;ratioP2;P2;SDS_P1;SDS_P2;PMS_P1;PMS_P2;Temp;Humidity;BMP_temperature;BMP_pressure;BME280_temperature;BME280_humidity;BME280_pressure;Samples;Min_cycle;Max_cycle;Signal;HPM_P1;HPM_P2
2021/03/08 00:01:09;;;;;;;3.80;1.63;;;21.10;44.40;;;;;;5032953;28;20183;-70
2021/03/08 00:03:34;;;;;;;2.80;1.50;;;21.20;44.50;;;;;;5033060;28;20182;-70
2021/03/08 00:06:00;;;;;;;2.10;1.50;;;21.10;44.40;;;;;;5033032;28;20414;-70
2021/03/08 00:08:25;;;;;;;2.00;1.50;;;21.10;44.40;;;;;;5031688;28;20195;-70
2021/03/08 00:10:51;;;;;;;1.87;1.63;;;21.10;44.40;;;;;;5031732;28;20179;-70
2021/03/08 00:13:17;;;;;;;2.00;1.57;;;21.10;44.40;;;;;;5033253;28;20258;-70
2021/03/08 00:15:42;;;;;;;1.50;1.40;;;21.10;44.40;;;;;;5031722;28;20205;-70
2021/03/08 00:18:08;;;;;;;1.97;1.40;;;21.10;44.40;;;;;;5032850;28;20195;-70
2021/03/08 00:20:34;;;;;;;2.70;1.60;;;21.10;44.40;;;;;;5033016;28;20680;-70
2021/03/08 00:23:00;;;;;;;1.80;1.60;;;21.10;44.40;;;;;;5032846;28;20569;-70
2021/03/08 00:25:28;;;;;;;3.00;1.90;;;21.10;44.40;;;;;;5033153;28;20510;-70
2021/03/08 00:27:54;;;;;;;3.50;1.87;;;21.10;44.50;;;;;;5032721;28;20253;-70
2021/03/08 00:30:21;;;;;;;2.80;1.50;;;21.10;44.50;;;;;;5032878;28;20398;-70
2021/03/08 00:32:47;;;;;;;1.60;1.47;;;21.10;44.50;;;;;;5031575;28;20441;-70
2021/03/08 00:35:14;;;;;;;3.30;1.60;;;21.10;44.50;;;;;;5033053;28;20407;-70
2021/03/08 00:37:40;;;;;;;3.03;1.57;;;21.10;44.50;;;;;;5032525;28;20516;-70
2021/03/08 00:40:12;;;;;;;2.30;1.60;;;21.10;44.50;;;;;;5032857;28;20429;-70
2021/03/08 00:42:39;;;;;;;2.47;1.63;;;21.10;44.50;;;;;;5031394;28;20826;-70
2021/03/08 00:45:21;;;;;;;2.97;1.70;;;21.10;44.50;;;;;;5032951;28;20506;-70
2021/03/08 00:47:47;;;;;;;3.40;1.60;;;21.10;44.50;;;;;;5032592;28;20465;-70
2021/03/08 00:50:22;;;;;;;2.00;1.60;;;21.10;44.50;;;;;;5032643;28;20485;-70
2021/03/08 00:52:47;;;;;;;2.40;1.67;;;21.10;44.60;;;;;;5032925;28;20485;-70
2021/03/08 00:55:14;;;;;;;1.40;1.20;;;21.10;44.60;;;;;;5032623;28;20502;-70
2021/03/08 00:57:41;;;;;;;1.83;1.57;;;21.10;44.60;;;;;;5032528;28;20194;-70
2021/03/08 01:00:09;;;;;;;1.90;1.60;;;21.00;44.60;;;;;;5032630;28;20406;-71
2021/03/08 01:02:35;;;;;;;1.50;1.30;;;21.10;44.60;;;;;;5032441;28;20503;-70
2021/03/08 01:05:00;;;;;;;1.47;1.30;;;21.00;44.60;;;;;;5032497;28;20406;-71
2021/03/08 01:07:26;;;;;;;1.87;1.50;;;21.10;44.60;;;;;;5032401;28;20239;-70
2021/03/08 01:09:52;;;;;;;4.30;2.83;;;21.10;44.60;;;;;;5032492;28;20167;-70
2021/03/08 01:12:17;;;;;;;2.87;1.60;;;21.10;44.60;;;;;;5034759;28;20233;-70
2021/03/08 01:14:43;;;;;;;1.63;1.50;;;21.00;44.50;;;;;;5036031;28;20176;-70
2021/03/08 01:17:09;;;;;;;1.50;1.13;;;21.00;44.60;;;;;;5035998;28;20634;-70
2021/03/08 01:19:34;;;;;;;1.60;1.50;;;21.00;44.60;;;;;;5036138;28;20283;-70
2021/03/08 01:22:01;;;;;;;1.90;1.50;;;21.00;44.60;;;;;;5035820;28;20278;-70
2021/03/08 01:24:27;;;;;;;2.07;1.50;;;21.10;44.60;;;;;;5035845;28;20172;-70
2021/03/08 01:26:52;;;;;;;1.60;1.50;;;21.00;44.60;;;;;;5036126;28;20814;-68
2021/03/08 01:29:18;;;;;;;1.90;1.50;;;21.00;44.60;;;;;;5035723;28;20513;-70
2021/03/08 01:31:43;;;;;;;1.50;1.30;;;21.00;44.60;;;;;;5035765;28;20176;-70
2021/03/08 01:34:10;;;;;;;1.80;1.20;;;21.00;44.60;;;;;;5035938;28;20198;-70
2021/03/08 01:36:35;;;;;;;1.77;1.40;;;21.00;44.60;;;;;;5035570;28;20225;-70
2021/03/08 01:39:02;;;;;;;1.70;1.40;;;21.00;44.60;;;;;;5035593;28;20928;-70
2021/03/08 01:41:27;;;;;;;3.93;1.70;;;21.00;44.60;;;;;;5035448;28;20246;-70
2021/03/08 01:43:53;;;;;;;2.33;1.50;;;21.00;44.60;;;;;;5034267;28;20866;-70
2021/03/08 01:46:18;;;;;;;1.53;1.40;;;21.00;44.60;;;;;;5035447;28;20179;-69
2021/03/08 01:48:44;;;;;;;2.13;1.43;;;20.90;44.50;;;;;;5034065;28;20250;-71
2021/03/08 01:51:10;;;;;;;2.13;1.40;;;21.00;44.60;;;;;;5035399;28;20168;-70
2021/03/08 01:53:36;;;;;;;1.73;1.30;;;21.00;44.60;;;;;;5035332;28;20179;-70
2021/03/08 01:56:05;;;;;;;1.83;1.50;;;21.00;44.60;;;;;;5035265;28;20167;-70
2021/03/08 01:58:32;;;;;;;1.80;1.50;;;21.00;44.70;;;;;;5035308;28;20509;-70
2021/03/08 02:00:58;;;;;;;1.67;1.43;;;21.00;44.70;;;;;;5035147;28;20884;-70
2021/03/08 02:03:24;;;;;;;1.53;1.30;;;21.00;44.70;;;;;;5035398;28;20454;-70
2021/03/08 02:05:50;;;;;;;1.60;1.20;;;21.00;45.30;;;;;;5035319;28;20473;-70
2021/03/08 02:08:18;;;;;;;1.30;1.17;;;21.00;44.70;;;;;;5034954;28;20935;-71
2021/03/08 02:10:45;;;;;;;2.37;1.50;;;21.00;44.70;;;;;;5035768;28;20403;-70
2021/03/08 02:13:48;;;;;;;2.30;1.40;;;21.00;44.70;;;;;;5034950;28;20407;-70
2021/03/08 02:16:30;;;;;;;2.23;1.60;;;21.00;44.70;;;;;;5034949;28;20461;-69
2021/03/08 02:19:18;;;;;;;1.80;1.40;;;21.00;44.80;;;;;;5034902;28;20466;-69
2021/03/08 02:22:11;;;;;;;1.70;1.40;;;21.00;44.80;;;;;;5033291;28;20457;-70
2021/03/08 02:25:14;;;;;;;2.00;1.60;;;20.90;44.70;;;;;;5034750;28;20883;-69
2021/03/08 02:27:42;;;;;;;1.67;1.40;;;20.90;44.70;;;;;;5033610;28;20809;-69
2021/03/08 02:30:28;;;;;;;1.63;1.20;;;20.90;44.80;;;;;;5033612;28;20414;-70
2021/03/08 02:32:55;;;;;;;2.43;1.30;;;20.90;44.70;;;;;;5027236;28;20427;-69
2021/03/08 02:35:25;;;;;;;1.97;1.20;;;20.90;44.70;;;;;;5034509;28;20414;-70
2021/03/08 02:37:54;;;;;;;1.40;1.20;;;21.00;44.80;;;;;;5034290;28;20847;-70
2021/03/08 02:40:26;;;;;;;1.90;1.70;;;21.00;44.80;;;;;;5034470;28;20406;-70
2021/03/08 02:42:55;;;;;;;2.40;1.27;;;21.00;44.70;;;;;;5034401;28;20537;-69
2021/03/08 02:45:24;;;;;;;2.17;1.30;;;21.00;44.70;;;;;;5033067;28;20418;-69
2021/03/08 02:47:52;;;;;;;2.00;1.20;;;21.00;44.70;;;;;;5032942;28;20953;-70
2021/03/08 02:50:19;;;;;;;2.53;1.20;;;21.00;44.70;;;;;;5034318;28;20505;-70
2021/03/08 02:52:56;;;;;;;1.47;1.23;;;21.00;44.70;;;;;;5034193;28;20564;-70
2021/03/08 02:55:31;;;;;;;1.57;1.10;;;21.00;44.70;;;;;;5034197;28;20395;-70
2021/03/08 02:58:00;;;;;;;1.70;1.20;;;21.00;44.70;;;;;;5034022;28;20435;-70
2021/03/08 03:00:27;;;;;;;1.43;1.17;;;21.00;44.80;;;;;;5016585;28;21044;-69
2021/03/08 03:02:54;;;;;;;2.10;1.47;;;21.00;44.70;;;;;;5033900;28;20469;-69
2021/03/08 03:05:20;;;;;;;1.83;1.30;;;21.00;44.70;;;;;;5033944;28;20493;-69
2021/03/08 03:07:49;;;;;;;2.90;1.40;;;21.00;44.70;;;;;;5033803;28;20422;-69
2021/03/08 03:10:17;;;;;;;1.80;1.20;;;21.00;44.70;;;;;;5033854;28;20413;-70
2021/03/08 03:12:44;;;;;;;1.77;1.30;;;21.00;44.70;;;;;;5033827;28;20406;-70
2021/03/08 03:15:11;;;;;;;2.07;1.00;;;21.00;44.70;;;;;;5032543;28;20787;-70
2021/03/08 03:17:38;;;;;;;2.20;1.47;;;21.00;44.70;;;;;;5033581;28;20842;-70
2021/03/08 03:20:09;;;;;;;1.53;1.20;;;21.00;44.70;;;;;;5032506;28;20425;-70
2021/03/08 03:22:37;;;;;;;1.80;1.30;;;21.00;44.70;;;;;;5033925;28;20467;-70
2021/03/08 03:25:03;;;;;;;2.40;1.43;;;21.00;44.70;;;;;;5033938;28;20402;-70
2021/03/08 03:27:29;;;;;;;1.60;1.40;;;21.00;44.70;;;;;;5033523;28;20403;-69
2021/03/08 03:29:56;;;;;;;1.87;1.40;;;21.00;44.80;;;;;;5033536;28;20925;-70
2021/03/08 03:32:22;;;;;;;1.50;1.27;;;21.00;44.70;;;;;;5032297;28;20791;-70
2021/03/08 03:34:49;;;;;;;1.43;1.20;;;21.00;44.80;;;;;;5033117;28;20422;-70
2021/03/08 03:37:22;;;;;;;1.47;1.20;;;21.00;44.80;;;;;;5033406;28;20433;-70
2021/03/08 03:39:48;;;;;;;1.40;1.30;;;21.00;44.80;;;;;;5032078;28;20438;-70
2021/03/08 03:42:18;;;;;;;1.50;1.30;;;21.00;44.80;;;;;;5033834;28;20967;-69
2021/03/08 03:44:44;;;;;;;1.47;1.20;;;21.00;44.80;;;;;;5033363;28;20901;-70
2021/03/08 03:47:12;;;;;;;1.47;1.13;;;21.00;44.80;;;;;;5033307;28;20407;-69
2021/03/08 03:49:37;;;;;;;1.17;1.07;;;21.00;44.80;;;;;;5033429;28;20430;-69
2021/03/08 03:52:04;;;;;;;1.37;1.17;;;21.00;44.80;;;;;;5033489;28;20421;-70
2021/03/08 03:54:30;;;;;;;1.40;1.10;;;21.00;44.80;;;;;;5033495;28;20172;-70
2021/03/08 03:57:01;;;;;;;1.50;1.23;;;21.00;44.80;;;;;;5032207;28;20413;-69
2021/03/08 03:59:33;;;;;;;2.20;1.50;;;21.00;44.80;;;;;;5031823;28;20231;-70
2021/03/08 04:02:03;;;;;;;1.97;1.40;;;21.00;44.80;;;;;;5033067;28;20523;-69
2021/03/08 04:04:40;;;;;;;1.57;1.17;;;21.00;44.80;;;;;;5033029;28;20413;-70
2021/03/08 04:07:07;;;;;;;2.03;1.20;;;21.00;44.80;;;;;;5033253;28;20947;-70
2021/03/08 04:09:34;;;;;;;2.33;1.13;;;21.00;44.80;;;;;;5032939;28;20422;-70
2021/03/08 04:12:01;;;;;;;1.30;1.20;;;21.00;44.80;;;;;;5031723;28;20513;-70
2021/03/08 04:14:30;;;;;;;1.33;1.10;;;21.00;44.80;;;;;;5032969;28;20415;-69
2021/03/08 04:16:57;;;;;;;1.53;1.43;;;21.00;44.80;;;;;;5031913;28;20418;-69
2021/03/08 04:19:28;;;;;;;1.23;0.90;;;21.00;44.80;;;;;;5033126;28;20460;-70
2021/03/08 04:22:03;;;;;;;1.57;1.30;;;21.00;44.80;;;;;;5033083;28;20500;-69
2021/03/08 04:24:32;;;;;;;1.90;1.23;;;21.00;44.80;;;;;;5032945;28;20386;-70
2021/03/08 04:27:05;;;;;;;1.30;1.10;;;21.00;44.80;;;;;;5032765;28;20403;-70
2021/03/08 04:29:34;;;;;;;1.70;1.40;;;21.00;44.80;;;;;;5032638;28;20921;-70
2021/03/08 04:32:01;;;;;;;1.83;1.03;;;20.90;44.80;;;;;;5031896;28;20589;-70
2021/03/08 04:34:29;;;;;;;1.30;1.10;;;21.00;44.80;;;;;;5032746;28;20429;-69
2021/03/08 04:36:55;;;;;;;1.77;1.30;;;21.00;44.90;;;;;;5032653;28;20484;-69
2021/03/08 04:39:20;;;;;;;1.67;1.20;;;20.90;44.80;;;;;;5031456;28;20447;-70
2021/03/08 04:41:46;;;;;;;1.40;1.17;;;21.00;44.90;;;;;;5032613;28;20679;-70
2021/03/08 04:44:12;;;;;;;1.50;1.10;;;20.90;44.80;;;;;;5032705;28;20411;-70
2021/03/08 04:46:39;;;;;;;2.00;1.57;;;21.00;45.00;;;;;;5034344;28;20221;-70
2021/03/08 04:49:06;;;;;;;1.30;1.00;;;20.90;44.90;;;;;;5036439;28;20192;-69
2021/03/08 04:51:35;;;;;;;1.53;1.20;;;20.90;44.90;;;;;;5036521;28;20414;-70
2021/03/08 04:54:02;;;;;;;2.00;1.30;;;20.90;44.90;;;;;;5036452;28;20438;-71
2021/03/08 04:56:31;;;;;;;1.57;1.20;;;20.90;45.00;;;;;;5036489;28;20818;-71
2021/03/08 04:58:56;;;;;;;1.80;1.30;;;20.90;44.90;;;;;;5036174;28;20442;-71
2021/03/08 05:01:23;;;;;;;1.83;1.10;;;20.90;44.90;;;;;;5036320;28;20784;-71
2021/03/08 05:03:52;;;;;;;1.30;1.10;;;20.90;45.00;;;;;;5037006;28;20241;-71
2021/03/08 05:06:18;;;;;;;1.30;1.20;;;20.90;45.00;;;;;;5036742;28;20402;-71
2021/03/08 05:08:46;;;;;;;1.63;1.30;;;20.90;45.10;;;;;;5036154;28;20438;-72
2021/03/08 05:11:12;;;;;;;1.50;1.10;;;20.90;45.10;;;;;;5036726;28;20932;-71
2021/03/08 05:13:39;;;;;;;1.60;1.30;;;20.90;45.10;;;;;;5036590;28;20410;-71
2021/03/08 05:16:07;;;;;;;1.40;1.10;;;20.80;45.00;;;;;;5035029;28;20426;-72
2021/03/08 05:18:34;;;;;;;1.60;1.33;;;20.90;45.10;;;;;;5036347;28;20434;-71
2021/03/08 05:21:02;;;;;;;1.93;1.23;;;20.80;45.00;;;;;;5034825;28;20453;-70
2021/03/08 05:23:29;;;;;;;1.50;1.40;;;20.90;45.10;;;;;;5036007;28;20489;-72
2021/03/08 05:25:59;;;;;;;1.43;1.00;;;20.90;45.10;;;;;;5036117;28;20402;-71
2021/03/08 05:28:25;;;;;;;1.47;1.37;;;20.90;45.10;;;;;;5035728;28;20418;-69
2021/03/08 05:30:53;;;;;;;2.37;1.30;;;20.90;45.00;;;;;;5035908;28;20824;-69
2021/03/08 05:33:25;;;;;;;2.90;1.30;;;20.90;44.90;;;;;;5035885;28;20172;-69
2021/03/08 05:35:54;;;;;;;1.90;1.23;;;20.90;44.90;;;;;;5035791;28;20397;-68
2021/03/08 05:38:24;;;;;;;2.47;2.00;;;20.90;45.00;;;;;;5035646;28;20536;-69
2021/03/08 05:41:11;;;;;;;1.53;1.30;;;20.90;45.00;;;;;;5035994;28;20395;-69
2021/03/08 05:43:38;;;;;;;1.67;1.27;;;20.90;45.00;;;;;;5035958;28;20449;-68
2021/03/08 05:46:09;;;;;;;1.53;1.43;;;20.90;45.00;;;;;;5035599;28;20434;-69
2021/03/08 05:48:34;;;;;;;1.57;1.43;;;20.90;45.00;;;;;;5035499;28;20426;-69
2021/03/08 05:51:46;;;;;;;2.13;1.37;;;20.90;45.00;;;;;;5035533;28;20406;-69
2021/03/08 05:54:36;;;;;;;1.83;1.40;;;20.90;44.90;;;;;;5035510;28;20167;-68
2021/03/08 05:57:15;;;;;;;1.70;1.30;;;20.90;45.00;;;;;;5035138;28;20390;-69
2021/03/08 06:00:11;;;;;;;3.23;1.33;;;20.90;45.00;;;;;;5035375;28;20959;-68
2021/03/08 06:02:53;;;;;;;2.60;1.20;;;20.90;45.00;;;;;;5034525;28;20474;-68
2021/03/08 06:05:56;;;;;;;1.93;1.30;;;20.90;44.90;;;;;;5033457;28;20929;-68
2021/03/08 06:08:49;;;;;;;1.70;1.47;;;21.00;45.00;;;;;;5033242;28;20553;-69
2021/03/08 06:11:15;;;;;;;1.63;1.37;;;20.90;44.90;;;;;;5033302;28;20387;-69
2021/03/08 06:13:43;;;;;;;2.23;1.77;;;20.90;44.90;;;;;;5031837;28;20415;-69
2021/03/08 06:16:15;;;;;;;2.50;1.70;;;21.00;45.00;;;;;;5031698;28;20788;-69
2021/03/08 06:18:44;;;;;;;1.47;1.37;;;21.00;45.00;;;;;;5034103;28;20533;-69
2021/03/08 06:21:12;;;;;;;3.33;1.90;;;21.00;45.00;;;;;;5033578;28;20413;-69
2021/03/08 06:23:40;;;;;;;3.10;1.80;;;21.00;45.00;;;;;;5033576;28;20466;-69
2021/03/08 06:26:08;;;;;;;2.03;1.30;;;21.00;45.00;;;;;;5034668;28;20409;-69
2021/03/08 06:28:34;;;;;;;2.47;1.37;;;21.00;45.00;;;;;;5034725;28;20945;-68
2021/03/08 06:31:03;;;;;;;2.27;1.53;;;21.00;45.00;;;;;;5035049;28;20427;-69
2021/03/08 06:33:30;;;;;;;2.13;1.20;;;21.10;44.90;;;;;;5034590;28;20445;-68
2021/03/08 06:35:59;;;;;;;3.70;2.40;;;21.10;44.90;;;;;;5034519;28;20448;-69
2021/03/08 06:38:26;;;;;;;3.60;1.70;;;21.20;44.90;;;;;;5033095;28;20466;-69
2021/03/08 06:40:52;;;;;;;2.10;1.40;;;21.20;44.90;;;;;;5034722;28;20411;-68
2021/03/08 06:43:18;;;;;;;3.17;1.70;;;21.30;44.90;;;;;;5034346;28;20496;-68
2021/03/08 06:45:43;;;;;;;2.63;2.10;;;21.30;44.90;;;;;;5034878;28;20789;-69
2021/03/08 06:48:09;;;;;;;3.27;1.60;;;21.30;44.90;;;;;;5034338;28;20193;-69
2021/03/08 06:50:35;;;;;;;2.60;1.60;;;21.30;45.00;;;;;;5033159;28;20176;-70
2021/03/08 06:53:02;;;;;;;3.10;1.60;;;21.30;44.90;;;;;;5034214;28;20266;-69
2021/03/08 06:55:28;;;;;;;2.20;1.67;;;21.30;44.90;;;;;;5032842;28;20288;-69
2021/03/08 06:57:54;;;;;;;3.20;1.50;;;21.40;44.90;;;;;;5034136;28;20438;-69
2021/03/08 07:00:19;;;;;;;1.83;1.53;;;21.40;44.90;;;;;;5034258;28;20921;-69
2021/03/08 07:02:47;;;;;;;3.10;2.00;;;21.40;44.80;;;;;;5032691;28;20293;-69
2021/03/08 07:05:23;;;;;;;3.70;1.80;;;21.40;44.80;;;;;;5034072;28;20168;-69
2021/03/08 07:07:52;;;;;;;3.93;1.57;;;21.50;45.00;;;;;;5034160;28;20873;-69
2021/03/08 07:10:31;;;;;;;3.73;2.30;;;21.50;45.00;;;;;;5033289;28;20955;-69
2021/03/08 07:12:57;;;;;;;1.97;1.40;;;21.40;44.90;;;;;;5033970;28;20480;-69
2021/03/08 07:15:23;;;;;;;3.90;1.80;;;21.40;44.90;;;;;;5034055;28;20411;-68
2021/03/08 07:17:48;;;;;;;2.10;1.80;;;21.40;44.90;;;;;;5033795;28;20426;-69
2021/03/08 07:20:16;;;;;;;6.60;1.73;;;21.50;45.50;;;;;;5032518;28;20215;-69
2021/03/08 07:22:53;;;;;;;3.53;2.40;;;21.50;45.00;;;;;;5033595;28;20610;-69
2021/03/08 07:25:18;;;;;;;3.10;1.77;;;21.50;45.00;;;;;;5033565;28;20406;-68
2021/03/08 07:27:48;;;;;;;2.20;1.37;;;21.60;45.10;;;;;;5032304;28;21099;-69
2021/03/08 07:30:16;;;;;;;3.37;1.80;;;21.50;45.00;;;;;;5033781;28;20166;-68
2021/03/08 07:33:03;;;;;;;2.50;1.97;;;21.50;45.00;;;;;;5033494;28;20410;-67
2021/03/08 07:35:44;;;;;;;3.13;1.80;;;21.60;45.00;;;;;;5033535;28;20477;-67
2021/03/08 07:38:15;;;;;;;3.53;2.07;;;21.60;45.10;;;;;;5015444;28;20473;-68
2021/03/08 07:40:43;;;;;;;3.07;1.63;;;21.60;45.10;;;;;;5033400;28;20433;-66
2021/03/08 07:43:22;;;;;;;4.80;1.80;;;21.60;45.00;;;;;;5033304;28;20458;-69
2021/03/08 07:45:48;;;;;;;2.70;1.80;;;21.60;45.10;;;;;;5032065;28;20457;-69
2021/03/08 07:48:18;;;;;;;3.93;2.13;;;21.60;45.00;;;;;;5033209;28;20461;-69
2021/03/08 07:50:46;;;;;;;3.53;2.20;;;21.60;45.00;;;;;;5033504;28;20160;-69
2021/03/08 07:53:25;;;;;;;4.60;1.73;;;21.60;45.00;;;;;;5033222;28;20410;-69
2021/03/08 07:55:53;;;;;;;6.50;1.70;;;21.60;45.60;;;;;;5033175;28;20429;-66
2021/03/08 07:58:19;;;;;;;4.83;2.00;;;21.60;45.00;;;;;;5033207;28;20907;-69
2021/03/08 08:00:46;;;;;;;2.60;1.70;;;21.60;45.00;;;;;;5033402;28;20410;-69
2021/03/08 08:03:11;;;;;;;2.47;1.83;;;21.70;45.10;;;;;;5033124;28;20968;-69
2021/03/08 08:05:37;;;;;;;4.27;1.90;;;21.70;45.10;;;;;;5034668;28;20593;-69
2021/03/08 08:08:07;;;;;;;4.00;1.80;;;21.70;45.00;;;;;;5032942;28;20195;-69
2021/03/08 08:10:33;;;;;;;3.00;1.80;;;21.70;45.10;;;;;;5033034;28;20183;-68
2021/03/08 08:13:02;;;;;;;4.83;2.70;;;21.70;45.60;;;;;;5033283;28;20951;-69
2021/03/08 08:15:28;;;;;;;4.03;2.20;;;21.70;45.00;;;;;;5033318;28;20426;-69
2021/03/08 08:17:55;;;;;;;3.00;1.70;;;21.70;45.00;;;;;;5032867;28;20430;-68
2021/03/08 08:20:21;;;;;;;4.87;1.93;;;21.70;45.20;;;;;;5033955;28;20442;-69
2021/03/08 08:22:54;;;;;;;2.67;1.50;;;21.80;45.10;;;;;;5037002;28;20485;-67
2021/03/08 08:25:20;;;;;;;4.30;1.77;;;21.70;45.00;;;;;;5037177;28;20266;-69
2021/03/08 08:27:48;;;;;;;3.73;2.03;;;21.70;45.00;;;;;;5035731;28;20466;-69
2021/03/08 08:30:14;;;;;;;3.30;1.93;;;21.70;45.00;;;;;;5035457;28;20504;-69
2021/03/08 08:32:50;;;;;;;2.63;1.83;;;21.80;45.10;;;;;;5036802;28;20917;-67
2021/03/08 08:35:24;;;;;;;3.37;2.27;;;21.80;45.10;;;;;;5036739;28;20921;-67
2021/03/08 08:38:08;;;;;;;4.00;1.87;;;21.80;45.10;;;;;;5036600;28;20454;-67
2021/03/08 08:40:44;;;;;;;6.10;2.33;;;21.80;45.10;;;;;;5036618;28;20418;-69
2021/03/08 08:43:20;;;;;;;3.40;2.17;;;21.80;45.10;;;;;;5036790;28;20500;-68
2021/03/08 08:45:54;;;;;;;3.87;2.80;;;21.80;45.10;;;;;;5036833;28;20469;-67
2021/03/08 08:48:21;;;;;;;4.70;2.50;;;21.80;45.20;;;;;;5036732;28;20790;-67
2021/03/08 08:50:54;;;;;;;3.67;2.37;;;21.80;45.20;;;;;;5036453;28;20418;-69
2021/03/08 08:53:34;;;;;;;3.90;2.50;;;21.80;45.20;;;;;;5035507;28;20897;-68
2021/03/08 08:56:01;;;;;;;3.00;2.40;;;21.80;45.20;;;;;;5036479;28;20445;-67
2021/03/08 08:58:29;;;;;;;6.70;2.50;;;21.80;45.20;;;;;;5036245;28;20460;-66
2021/03/08 09:04:10;;;;;;;7.80;2.33;;;21.80;45.20;;;;;;5036478;28;20457;-67
2021/03/08 09:06:54;;;;;;;3.83;2.50;;;21.80;45.20;;;;;;5036126;28;20425;-68
2021/03/08 09:09:26;;;;;;;2.20;1.90;;;21.80;45.20;;;;;;5036081;28;20434;-69
2021/03/08 09:11:59;;;;;;;3.13;2.40;;;21.80;45.30;;;;;;5036102;28;20406;-69
2021/03/08 09:14:27;;;;;;;3.00;1.97;;;21.80;45.30;;;;;;5034751;28;20422;-69
2021/03/08 09:17:12;;;;;;;3.97;2.37;;;21.80;45.20;;;;;;5035949;28;20410;-66
2021/03/08 09:19:39;;;;;;;5.00;2.70;;;21.80;45.20;;;;;;5034856;28;20804;-68
2021/03/08 09:22:25;;;;;;;4.00;2.03;;;21.80;45.20;;;;;;5035815;28;20455;-68
2021/03/08 09:24:58;;;;;;;7.80;2.53;;;21.90;45.20;;;;;;5035788;28;20406;-68
2021/03/08 09:27:32;;;;;;;3.40;2.60;;;21.80;45.20;;;;;;5034643;28;20394;-69
2021/03/08 09:30:21;;;;;;;4.10;2.17;;;21.80;45.20;;;;;;5034059;28;20533;-69
2021/03/08 09:32:55;;;;;;;3.43;2.47;;;21.80;45.20;;;;;;5032635;28;20395;-68
2021/03/08 09:35:25;;;;;;;3.10;2.30;;;21.80;45.20;;;;;;5033663;28;20403;-69
2021/03/08 09:37:53;;;;;;;4.33;2.27;;;21.80;45.20;;;;;;5033488;28;20827;-68
2021/03/08 09:40:26;;;;;;;4.57;2.80;;;21.80;45.20;;;;;;5033634;28;20890;-68
2021/03/08 09:42:51;;;;;;;6.23;2.53;;;21.80;45.20;;;;;;5033469;28;20454;-67
2021/03/08 09:45:34;;;;;;;3.93;2.20;;;21.80;45.20;;;;;;5034988;28;20485;-67
2021/03/08 09:48:02;;;;;;;3.10;2.10;;;21.80;45.20;;;;;;5035333;28;20279;-66
2021/03/08 09:50:34;;;;;;;4.73;2.50;;;21.80;45.20;;;;;;5036004;28;20415;-66
2021/03/08 09:53:00;;;;;;;3.07;2.30;;;21.80;45.20;;;;;;5035340;28;20399;-68
2021/03/08 09:55:32;;;;;;;3.70;2.90;;;21.70;45.20;;;;;;5035392;28;20940;-66
2021/03/08 09:57:58;;;;;;;4.17;2.67;;;21.80;45.20;;;;;;5035306;28;20782;-68
2021/03/08 10:00:33;;;;;;;2.83;2.60;;;21.70;45.20;;;;;;5035149;28;20441;-66
2021/03/08 10:03:03;;;;;;;5.50;3.50;;;21.70;45.10;;;;;;5035112;28;20187;-68
2021/03/08 10:05:41;;;;;;;4.93;2.77;;;21.70;45.10;;;;;;5035104;28;20921;-68
2021/03/08 10:08:07;;;;;;;4.30;3.40;;;21.70;45.10;;;;;;5035105;28;20452;-69
2021/03/08 10:10:50;;;;;;;4.27;3.00;;;21.70;45.10;;;;;;5034989;28;20893;-67
2021/03/08 10:13:16;;;;;;;3.00;2.70;;;21.70;45.10;;;;;;5035206;28;20456;-67
2021/03/08 10:15:50;;;;;;;4.30;2.10;;;21.70;45.10;;;;;;5035140;28;20418;-67
2021/03/08 10:18:22;;;;;;;4.70;3.07;;;21.70;45.00;;;;;;5034116;28;20457;-68
2021/03/08 10:20:53;;;;;;;5.60;2.90;;;21.70;45.10;;;;;;5033551;28;20402;-67
2021/03/08 10:23:25;;;;;;;2.43;2.10;;;21.70;45.00;;;;;;5034823;28;20458;-69
2021/03/08 10:25:52;;;;;;;5.20;3.00;;;21.70;45.00;;;;;;5033637;28;20901;-69
2021/03/08 10:28:18;;;;;;;5.33;3.00;;;21.70;45.00;;;;;;5035340;28;20993;-69
2021/03/08 10:30:44;;;;;;;4.50;2.70;;;21.70;45.00;;;;;;5034879;28;20439;-69
2021/03/08 10:33:18;;;;;;;3.70;2.60;;;21.70;45.00;;;;;;5033316;28;20468;-69
2021/03/08 10:35:54;;;;;;;3.87;2.90;;;21.70;44.90;;;;;;5034697;28;20415;-69
2021/03/08 10:38:23;;;;;;;3.10;2.30;;;21.70;45.00;;;;;;5034314;28;20458;-68
2021/03/08 10:40:52;;;;;;;2.70;2.27;;;21.70;45.00;;;;;;5034701;28;20790;-68
2021/03/08 10:43:21;;;;;;;6.80;2.63;;;21.70;45.00;;;;;;5032989;28;20999;-69
2021/03/08 10:45:53;;;;;;;4.03;2.70;;;21.70;44.90;;;;;;5034222;28;20414;-68
2021/03/08 10:48:21;;;;;;;6.20;2.73;;;21.70;44.90;;;;;;5034576;28;20509;-67
2021/03/08 10:50:50;;;;;;;4.10;2.23;;;21.70;45.00;;;;;;5034227;28;20502;-67
2021/03/08 10:53:21;;;;;;;3.60;2.70;;;21.70;44.90;;;;;;5034081;28;20422;-67
2021/03/08 10:55:51;;;;;;;3.83;2.50;;;21.70;44.90;;;;;;5034021;28;20509;-66
2021/03/08 10:58:17;;;;;;;5.03;2.83;;;21.70;44.90;;;;;;5033934;28;20866;-67
2021/03/08 11:00:44;;;;;;;3.87;2.43;;;21.70;44.90;;;;;;5033019;28;20814;-67
2021/03/08 11:03:39;;;;;;;3.50;2.40;;;21.70;44.90;;;;;;5034038;28;20457;-68
2021/03/08 11:06:13;;;;;;;3.13;2.00;;;21.70;44.80;;;;;;5034047;28;20407;-68
2021/03/08 11:08:40;;;;;;;3.70;2.60;;;21.60;44.80;;;;;;5033876;28;20433;-67
2021/03/08 11:11:20;;;;;;;3.10;2.40;;;21.60;44.80;;;;;;5034082;28;20967;-68
2021/03/08 11:13:47;;;;;;;4.30;2.60;;;21.70;44.80;;;;;;5034366;28;20448;-68
2021/03/08 11:16:14;;;;;;;2.80;2.30;;;21.60;45.30;;;;;;5033876;28;20415;-68
2021/03/08 11:18:41;;;;;;;3.17;2.10;;;21.60;44.70;;;;;;5032582;28;20944;-67
2021/03/08 11:21:26;;;;;;;4.20;2.47;;;21.60;44.70;;;;;;5033879;28;20969;-67
2021/03/08 11:24:15;;;;;;;3.27;2.97;;;21.70;44.60;;;;;;5033897;28;20458;-67
2021/03/08 11:26:41;;;;;;;3.23;2.67;;;21.70;44.50;;;;;;5033603;28;20405;-69
2021/03/08 11:29:22;;;;;;;3.50;2.80;;;21.60;44.40;;;;;;5033481;28;20430;-69
2021/03/08 11:31:54;;;;;;;3.50;3.20;;;21.60;44.30;;;;;;5033554;28;20470;-68
2021/03/08 11:34:39;;;;;;;4.73;3.27;;;21.60;44.30;;;;;;5032143;28;20429;-68
2021/03/08 11:37:13;;;;;;;6.67;3.30;;;21.60;44.30;;;;;;5033876;28;20434;-68
2021/03/08 11:39:56;;;;;;;3.63;3.13;;;21.60;44.20;;;;;;5033676;28;20469;-69
2021/03/08 11:42:25;;;;;;;3.00;2.80;;;21.60;44.20;;;;;;5033397;28;20646;-68
2021/03/08 11:44:53;;;;;;;2.93;2.63;;;21.60;44.30;;;;;;5033466;28;20418;-68
2021/03/08 11:47:22;;;;;;;3.13;2.83;;;21.60;44.20;;;;;;5033374;28;20420;-68
2021/03/08 11:49:48;;;;;;;3.50;2.73;;;21.60;44.20;;;;;;5033477;28;20526;-66
2021/03/08 11:52:14;;;;;;;3.57;2.50;;;21.60;44.20;;;;;;5033617;28;20450;-68
2021/03/08 11:54:39;;;;;;;2.70;2.37;;;21.60;44.30;;;;;;5033062;28;20190;-69
2021/03/08 11:57:07;;;;;;;3.17;2.50;;;21.60;44.30;;;;;;5033100;28;20267;-68
2021/03/08 11:59:33;;;;;;;2.63;2.10;;;21.60;44.40;;;;;;5033075;28;20195;-68
2021/03/08 12:01:59;;;;;;;3.33;2.10;;;21.60;44.40;;;;;;5033306;28;20466;-68
2021/03/08 12:04:25;;;;;;;3.03;2.70;;;21.60;44.40;;;;;;5033221;28;20905;-69
2021/03/08 12:06:51;;;;;;;2.30;2.10;;;21.60;44.50;;;;;;5033366;28;20175;-69
2021/03/08 12:09:17;;;;;;;3.63;2.50;;;21.60;44.50;;;;;;5033250;28;20431;-70
2021/03/08 12:11:43;;;;;;;3.90;2.80;;;21.60;44.50;;;;;;5033032;28;20403;-71
2021/03/08 12:14:11;;;;;;;2.90;2.20;;;21.60;44.50;;;;;;5032908;28;20936;-69
2021/03/08 12:16:37;;;;;;;2.30;2.10;;;21.60;44.60;;;;;;5033016;28;20175;-69
2021/03/08 12:19:03;;;;;;;2.40;1.87;;;21.60;44.60;;;;;;5031663;28;20496;-68
2021/03/08 12:21:30;;;;;;;1.80;1.70;;;21.60;44.60;;;;;;5031039;28;20172;-70
2021/03/08 12:23:56;;;;;;;3.17;2.20;;;21.60;44.60;;;;;;5031674;28;20647;-70
2021/03/08 12:26:21;;;;;;;3.10;1.87;;;21.60;44.60;;;;;;5030864;28;20465;-69
2021/03/08 12:28:47;;;;;;;3.47;2.10;;;21.60;44.60;;;;;;5030739;28;20436;-70
2021/03/08 12:31:14;;;;;;;3.03;2.03;;;21.60;44.60;;;;;;5030746;28;20187;-69
2021/03/08 12:33:40;;;;;;;4.20;2.27;;;21.60;44.60;;;;;;5029463;28;20537;-70
2021/03/08 12:36:06;;;;;;;4.47;2.47;;;21.60;45.10;;;;;;5030619;28;20505;-70
2021/03/08 12:38:34;;;;;;;5.83;2.50;;;21.60;44.60;;;;;;5030503;28;20211;-69
2021/03/08 12:41:00;;;;;;;5.13;2.57;;;21.60;44.60;;;;;;5030351;28;20795;-69
2021/03/08 12:43:25;;;;;;;4.30;2.47;;;21.60;44.60;;;;;;5031352;28;20454;-69
2021/03/08 12:45:51;;;;;;;8.80;3.10;;;21.60;44.60;;;;;;5032692;28;20422;-70
2021/03/08 12:48:16;;;;;;;6.37;3.43;;;21.60;44.60;;;;;;5032604;28;20231;-70
2021/03/08 12:50:42;;;;;;;8.33;4.97;;;21.60;44.70;;;;;;5032627;28;20184;-70
2021/03/08 12:53:10;;;;;;;10.80;4.30;;;21.60;44.70;;;;;;5032714;28;20182;-70
2021/03/08 12:55:36;;;;;;;8.00;4.13;;;21.60;44.70;;;;;;5031359;28;20186;-70
2021/03/08 12:58:01;;;;;;;11.60;4.07;;;21.60;44.70;;;;;;5032461;28;20438;-70
2021/03/08 13:00:27;;;;;;;10.70;6.00;;;21.60;44.70;;;;;;5031302;28;20415;-69
2021/03/08 13:02:53;;;;;;;13.00;8.20;;;21.60;44.80;;;;;;5032454;28;20203;-70